Serval — J8B4154 — position and weather

sailwx.info

Track history (hours):
 
Tides and Currents Weather Stations Pressure Air Temp Water Temp Dewpoint Dewpoint Depression Visibility Wind Speed Wind Dir Waves Ship Positions

Serval

Last reported at 2014-Oct-31 16:34 UTC. Time now 2014-Oct-31 17:13 UTC.
Position N 53°59' E 008°26'.

Length 30 m; draft 4.3 m.

Type: . MMSI: 377103000.

Date/timePositionNaut miles runAvg speedWind from/ knotsBaromVisibWave heightAir tempDewpointWater temp
2014-Oct-31 16:34N 53°59' E 008°26'8 7.5
2014-Oct-31 15:29N 53°59' E 008°12'8 7.7
2014-Oct-31 14:27N 53°58' E 007°59'7 8.0
2014-Oct-31 13:32N 53°56' E 007°46'8 8.1
2014-Oct-31 12:30N 53°54' E 007°33'  
2014-Oct-28 17:26N 53°55' E 006°24'2 0.4
2014-Oct-28 12:21N 53°56' E 006°28'1 1.3
2014-Oct-28 11:33N 53°55' E 006°29'2 0.2
2014-Oct-28 00:28N 53°56' E 006°26'2 1.8
2014-Oct-27 23:27N 53°55' E 006°25'0 0.4
2014-Oct-27 22:33N 53°55' E 006°25'  
2014-Oct-23 16:32N 53°34' E 006°40'7 6.8
2014-Oct-23 15:34N 53°30' E 006°49'3 3.2
2014-Oct-23 14:32N 53°27' E 006°50'0 0.0
2014-Oct-23 13:32N 53°27' E 006°50'0 0.0
2014-Oct-23 12:32N 53°27' E 006°50'0 0.0
2014-Oct-23 11:32N 53°27' E 006°50'0 0.0
2014-Oct-23 10:32N 53°27' E 006°50'0 0.0
2014-Oct-23 09:32N 53°27' E 006°50'0 0.0
2014-Oct-23 08:32N 53°27' E 006°50'0 0.0
2014-Oct-23 07:32N 53°27' E 006°50'0 0.0
2014-Oct-23 06:32N 53°27' E 006°50'0 0.0
2014-Oct-23 05:32N 53°27' E 006°50'0 0.0
2014-Oct-23 04:32N 53°27' E 006°50'0 0.0
2014-Oct-23 03:32N 53°27' E 006°50'0 0.0
2014-Oct-23 02:32N 53°27' E 006°50'0 0.0
2014-Oct-23 01:32N 53°27' E 006°50'0 0.0
2014-Oct-23 00:32N 53°27' E 006°50'0 0.0
2014-Oct-22 23:32N 53°27' E 006°50'0 0.0
2014-Oct-22 22:32N 53°27' E 006°50'0 0.0
2014-Oct-22 21:32N 53°27' E 006°50'0 0.0
2014-Oct-22 20:32N 53°27' E 006°50'0 0.0
2014-Oct-22 19:32N 53°27' E 006°50'0 0.0
2014-Oct-22 18:32N 53°27' E 006°50'0 0.0
2014-Oct-22 17:31N 53°27' E 006°50'0 0.0
2014-Oct-22 16:31N 53°27' E 006°50'0 0.0
2014-Oct-22 15:31N 53°27' E 006°50'0 0.0
2014-Oct-22 14:31N 53°27' E 006°50'0 0.0
2014-Oct-22 13:31N 53°27' E 006°50'0 0.0
2014-Oct-22 12:31N 53°27' E 006°50'0 0.0
2014-Oct-22 11:31N 53°27' E 006°50'0 0.0
2014-Oct-22 10:31N 53°27' E 006°50'0 0.0
2014-Oct-22 09:31N 53°27' E 006°50'0 0.0
2014-Oct-22 08:31N 53°27' E 006°50'0 0.0
2014-Oct-22 07:31N 53°27' E 006°50'0 0.0
2014-Oct-22 06:31N 53°27' E 006°50'0 0.0
2014-Oct-22 05:31N 53°27' E 006°50'0 0.0
2014-Oct-22 04:31N 53°27' E 006°50'0 0.0
2014-Oct-22 03:31N 53°27' E 006°50'0 0.0
2014-Oct-22 02:31N 53°27' E 006°50'0 0.0
2014-Oct-22 01:31N 53°27' E 006°50'0 0.0
2014-Oct-22 00:31N 53°27' E 006°50'0 0.0
2014-Oct-21 23:31N 53°27' E 006°50'0 0.0
2014-Oct-21 22:31N 53°27' E 006°50'0 0.0
2014-Oct-21 21:31N 53°27' E 006°50'0 0.0
2014-Oct-21 20:31N 53°27' E 006°50'0 0.0
2014-Oct-21 19:31N 53°27' E 006°50'0 0.0
2014-Oct-21 18:31N 53°27' E 006°50'0 0.0
2014-Oct-21 17:31N 53°27' E 006°50'  
Track history (hours):
 
Tides and Currents Weather Stations Pressure Air Temp Water Temp Dewpoint Dewpoint Depression Visibility Wind Speed Wind Dir Waves Ship Positions

Serval

Last reported at 2014-Oct-31 16:34 UTC. Time now 2014-Oct-31 17:13 UTC.
Position N 53°59' E 008°26'.

Length 30 m; draft 4.3 m.

Type: . MMSI: 377103000.

Date/timePositionNaut miles runAvg speedWind from/ knotsBaromVisibWave heightAir tempDewpointWater temp
2014-Oct-31 16:34N 53°59' E 008°26'8 7.5
2014-Oct-31 15:29N 53°59' E 008°12'8 7.7
2014-Oct-31 14:27N 53°58' E 007°59'7 8.0
2014-Oct-31 13:32N 53°56' E 007°46'8 8.1
2014-Oct-31 12:30N 53°54' E 007°33'  
2014-Oct-28 17:26N 53°55' E 006°24'2 0.4
2014-Oct-28 12:21N 53°56' E 006°28'1 1.3
2014-Oct-28 11:33N 53°55' E 006°29'2 0.2
2014-Oct-28 00:28N 53°56' E 006°26'2 1.8
2014-Oct-27 23:27N 53°55' E 006°25'0 0.4
2014-Oct-27 22:33N 53°55' E 006°25'  
2014-Oct-23 16:32N 53°34' E 006°40'7 6.8
2014-Oct-23 15:34N 53°30' E 006°49'3 3.2
2014-Oct-23 14:32N 53°27' E 006°50'0 0.0
2014-Oct-23 13:32N 53°27' E 006°50'0 0.0
2014-Oct-23 12:32N 53°27' E 006°50'0 0.0
2014-Oct-23 11:32N 53°27' E 006°50'0 0.0
2014-Oct-23 10:32N 53°27' E 006°50'0 0.0
2014-Oct-23 09:32N 53°27' E 006°50'0 0.0
2014-Oct-23 08:32N 53°27' E 006°50'0 0.0
2014-Oct-23 07:32N 53°27' E 006°50'0 0.0
2014-Oct-23 06:32N 53°27' E 006°50'0 0.0
2014-Oct-23 05:32N 53°27' E 006°50'0 0.0
2014-Oct-23 04:32N 53°27' E 006°50'0 0.0
2014-Oct-23 03:32N 53°27' E 006°50'0 0.0
2014-Oct-23 02:32N 53°27' E 006°50'0 0.0
2014-Oct-23 01:32N 53°27' E 006°50'0 0.0
2014-Oct-23 00:32N 53°27' E 006°50'0 0.0
2014-Oct-22 23:32N 53°27' E 006°50'0 0.0
2014-Oct-22 22:32N 53°27' E 006°50'0 0.0
2014-Oct-22 21:32N 53°27' E 006°50'0 0.0
2014-Oct-22 20:32N 53°27' E 006°50'0 0.0
2014-Oct-22 19:32N 53°27' E 006°50'0 0.0
2014-Oct-22 18:32N 53°27' E 006°50'0 0.0
2014-Oct-22 17:31N 53°27' E 006°50'0 0.0
2014-Oct-22 16:31N 53°27' E 006°50'0 0.0
2014-Oct-22 15:31N 53°27' E 006°50'0 0.0
2014-Oct-22 14:31N 53°27' E 006°50'0 0.0
2014-Oct-22 13:31N 53°27' E 006°50'0 0.0
2014-Oct-22 12:31N 53°27' E 006°50'0 0.0
2014-Oct-22 11:31N 53°27' E 006°50'0 0.0
2014-Oct-22 10:31N 53°27' E 006°50'0 0.0
2014-Oct-22 09:31N 53°27' E 006°50'0 0.0
2014-Oct-22 08:31N 53°27' E 006°50'0 0.0
2014-Oct-22 07:31N 53°27' E 006°50'0 0.0
2014-Oct-22 06:31N 53°27' E 006°50'0 0.0
2014-Oct-22 05:31N 53°27' E 006°50'0 0.0
2014-Oct-22 04:31N 53°27' E 006°50'0 0.0
2014-Oct-22 03:31N 53°27' E 006°50'0 0.0
2014-Oct-22 02:31N 53°27' E 006°50'0 0.0
2014-Oct-22 01:31N 53°27' E 006°50'0 0.0
2014-Oct-22 00:31N 53°27' E 006°50'0 0.0
2014-Oct-21 23:31N 53°27' E 006°50'0 0.0
2014-Oct-21 22:31N 53°27' E 006°50'0 0.0
2014-Oct-21 21:31N 53°27' E 006°50'0 0.0
2014-Oct-21 20:31N 53°27' E 006°50'0 0.0
2014-Oct-21 19:31N 53°27' E 006°50'0 0.0
2014-Oct-21 18:31N 53°27' E 006°50'0 0.0
2014-Oct-21 17:31N 53°27' E 006°50'  

Dump ship's entire track history